Terminal Aerodrome Forecast
Issued by NWS

Home | Current Version | Previous Version | Graphics & Text | Print | Product List | Glossary On
Versions: 1 2 3 4 5 6 7 8 9 10 11 12 13 14 15 16 17
000
FTUS43 KGRB 252300 RRA
TAFCWA
TAF
KCWA 252341Z 2600/2624 26015G25KT P6SM OVC030
     FM260100 28012G18KT P6SM BKN025
     FM260400 28010KT P6SM SCT025 BKN040
     FM260900 30010KT P6SM BKN020
     FM261400 32012KT P6SM BKN030
      AMD LTD TO CLD VIS AND WIND 2603/2611=

USA.gov is the U.S. government's official web portal to all federal, state and local government web resources and services.